createdAt,value
2018-01-23T00:00:30.811Z,97217
2018-01-23T00:02:58.989Z,97217
2018-01-23T00:05:27.955Z,97217
2018-01-23T00:07:56.125Z,97219
2018-01-23T00:10:24.295Z,97222
2018-01-23T00:12:52.473Z,97232
2018-01-23T00:15:20.648Z,97245
2018-01-23T00:17:48.870Z,97239
2018-01-23T00:20:17.805Z,97240
2018-01-23T00:22:45.992Z,97258
2018-01-23T00:25:14.180Z,97266
2018-01-23T00:27:42.329Z,97272
2018-01-23T00:30:10.490Z,97269
2018-01-23T00:32:38.655Z,97277
2018-01-23T00:35:06.822Z,97283
2018-01-23T00:37:35.027Z,97279
2018-01-23T00:40:03.243Z,97285
2018-01-23T00:42:32.178Z,97289
2018-01-23T00:45:00.348Z,97291
2018-01-23T00:47:28.489Z,97297
2018-01-23T00:49:57.428Z,97294
2018-01-23T00:52:25.606Z,97282
2018-01-23T00:54:53.753Z,97283
2018-01-23T00:57:21.902Z,97287
2018-01-23T00:59:50.839Z,97293
2018-01-23T01:02:18.979Z,97291
2018-01-23T01:04:47.948Z,97294
2018-01-23T01:07:16.104Z,97296
2018-01-23T01:09:44.294Z,97286
2018-01-23T01:12:12.526Z,97295
2018-01-23T01:14:40.694Z,97298
2018-01-23T01:17:08.894Z,97297
2018-01-23T01:19:37.077Z,97300
2018-01-23T01:22:05.258Z,97284
2018-01-23T01:24:33.453Z,97290
2018-01-23T01:27:02.441Z,97295
2018-01-23T01:29:31.499Z,97294
2018-01-23T01:31:59.743Z,97304
2018-01-23T01:34:27.926Z,97315
2018-01-23T01:36:56.101Z,97325
2018-01-23T01:39:24.290Z,97327
2018-01-23T01:41:52.456Z,97313
2018-01-23T01:44:20.635Z,97328
2018-01-23T01:46:48.859Z,97327
2018-01-23T01:49:17.041Z,97327
2018-01-23T01:51:45.215Z,97331
2018-01-23T01:54:13.397Z,97338
2018-01-23T01:56:42.321Z,97334
2018-01-23T01:59:10.512Z,97332
2018-01-23T02:01:38.718Z,97327
2018-01-23T02:04:06.949Z,97327
2018-01-23T02:06:35.193Z,97331
2018-01-23T02:09:04.233Z,97336
2018-01-23T02:11:32.666Z,97334
2018-01-23T02:14:01.612Z,97343
2018-01-23T02:16:29.782Z,97343
2018-01-23T02:18:57.972Z,97351
2018-01-23T02:21:26.154Z,97341
2018-01-23T02:23:54.315Z,97354
2018-01-23T02:26:22.494Z,97350
2018-01-23T02:28:51.444Z,97364
2018-01-23T02:31:19.650Z,97343
2018-01-23T02:33:47.861Z,97358
2018-01-23T02:36:16.065Z,97371
2018-01-23T02:38:44.230Z,97368
2018-01-23T02:41:13.180Z,97377
2018-01-23T02:43:41.346Z,97378
2018-01-23T02:46:09.538Z,97387
2018-01-23T02:48:37.734Z,97393
2018-01-23T02:51:05.900Z,97397
2018-01-23T02:53:34.070Z,97398
2018-01-23T02:56:02.230Z,97401
2018-01-23T02:58:30.414Z,97413
2018-01-23T03:00:58.654Z,97422
2018-01-23T03:03:26.828Z,97412
2018-01-23T03:05:54.997Z,97415
2018-01-23T03:08:23.204Z,97428
2018-01-23T03:10:52.166Z,97427
2018-01-23T03:13:20.395Z,97421
2018-01-23T03:15:48.580Z,97425
2018-01-23T03:18:17.520Z,97432
2018-01-23T03:20:45.711Z,97423
2018-01-23T03:23:14.674Z,97434
2018-01-23T03:25:42.878Z,97422
2018-01-23T03:28:11.053Z,97432
2018-01-23T03:30:39.217Z,97432
2018-01-23T03:33:07.413Z,97436
2018-01-23T03:35:35.597Z,97426
2018-01-23T03:38:03.772Z,97431
2018-01-23T03:40:31.953Z,97435
2018-01-23T03:43:00.151Z,97431
2018-01-23T03:45:29.126Z,97438
2018-01-23T03:47:58.065Z,97435
2018-01-23T03:50:26.249Z,97443
2018-01-23T03:52:54.416Z,97454
2018-01-23T03:55:22.590Z,97449
2018-01-23T03:57:50.777Z,97464
2018-01-23T04:00:19.012Z,97460
2018-01-23T04:02:48.003Z,97457
2018-01-23T04:05:16.986Z,97467
2018-01-23T04:07:45.928Z,97480
2018-01-23T04:10:14.100Z,97488
2018-01-23T04:12:42.267Z,97487
2018-01-23T04:15:10.434Z,97501
2018-01-23T04:17:38.610Z,97494
2018-01-23T04:20:06.790Z,97504
2018-01-23T04:22:34.970Z,97506
2018-01-23T04:25:03.208Z,97513
2018-01-23T04:27:32.151Z,97511
2018-01-23T04:30:00.329Z,97526
2018-01-23T04:32:28.528Z,97524
2018-01-23T04:34:56.719Z,97527
2018-01-23T04:37:25.663Z,97527
2018-01-23T04:39:53.824Z,97536
2018-01-23T04:42:22.032Z,97529
2018-01-23T04:44:50.984Z,97548
2018-01-23T04:47:19.153Z,97551
2018-01-23T06:11:45.004Z,97698
2018-01-23T06:14:13.192Z,97709
2018-01-23T06:16:42.160Z,97705
2018-01-23T06:19:10.336Z,97717
2018-01-23T06:21:38.573Z,97720
2018-01-23T06:24:06.758Z,97733
2018-01-23T06:26:34.960Z,97729
2018-01-23T06:29:03.197Z,97734
2018-01-23T06:31:31.361Z,97749
2018-01-23T06:33:59.537Z,97757
2018-01-23T06:36:27.724Z,97763
2018-01-23T06:38:55.897Z,97774
2018-01-23T06:41:24.067Z,97778
2018-01-23T06:43:52.234Z,97790
2018-01-23T06:46:20.404Z,97792
2018-01-23T06:48:48.579Z,97799
2018-01-23T06:51:16.777Z,97812
2018-01-23T06:53:44.999Z,97826
2018-01-23T06:56:13.217Z,97825
2018-01-23T06:58:41.436Z,97822
2018-01-23T07:01:09.600Z,97831
2018-01-23T07:03:37.818Z,97834
2018-01-23T07:06:06.822Z,97845
2018-01-23T07:08:35.029Z,97843
2018-01-23T07:11:03.208Z,97850
2018-01-23T07:13:31.365Z,97857
2018-01-23T07:15:59.589Z,97864
2018-01-23T07:18:27.778Z,97867
2018-01-23T07:20:56.790Z,97878
2018-01-23T07:23:24.989Z,97896
2018-01-23T07:25:53.216Z,97921
2018-01-23T07:28:22.217Z,97922
2018-01-23T07:30:51.160Z,97927
2018-01-23T07:33:19.332Z,97933
2018-01-23T07:35:47.534Z,97938
2018-01-23T07:38:15.804Z,97945
2018-01-23T07:40:44.011Z,97949
2018-01-23T07:43:12.951Z,97955
2018-01-23T07:45:41.141Z,97961
2018-01-23T07:48:09.350Z,97978
2018-01-23T07:50:38.338Z,97971
2018-01-23T07:53:07.287Z,97976
2018-01-23T07:55:35.477Z,97987
2018-01-23T07:58:03.669Z,97999
2018-01-23T08:00:31.850Z,98000
2018-01-23T08:03:00.079Z,98006
2018-01-23T08:05:28.307Z,97993
2018-01-23T08:07:57.255Z,97992
2018-01-23T08:10:25.489Z,98010
2018-01-23T08:12:54.487Z,98012
2018-01-23T08:15:23.445Z,98023
2018-01-23T08:17:51.640Z,98028
2018-01-23T08:20:20.605Z,98027
2018-01-23T08:22:48.799Z,98029
2018-01-23T08:25:16.961Z,98044
2018-01-23T08:27:45.153Z,98052
2018-01-23T08:30:14.110Z,98051
2018-01-23T08:32:42.322Z,98054
2018-01-23T08:35:11.281Z,98061
2018-01-23T08:37:39.484Z,98064
2018-01-23T08:40:07.684Z,98085
2018-01-23T08:42:35.874Z,98094
2018-01-23T08:45:04.164Z,98086
2018-01-23T08:47:32.313Z,98098
2018-01-23T08:50:01.251Z,98099
2018-01-23T08:52:29.472Z,98103
2018-01-23T08:54:58.421Z,98115
2018-01-23T08:57:26.632Z,98116
2018-01-23T08:59:55.605Z,98115
2018-01-23T09:02:23.842Z,98120
2018-01-23T09:04:52.034Z,98116
2018-01-23T09:07:20.213Z,98117
2018-01-23T09:09:49.146Z,98123
2018-01-23T09:12:18.106Z,98122
2018-01-23T09:14:46.288Z,98126
2018-01-23T09:17:14.479Z,98128
2018-01-23T09:19:42.685Z,98124
2018-01-23T09:22:10.857Z,98135
2018-01-23T09:24:39.046Z,98133
2018-01-23T09:27:07.238Z,98129
2018-01-23T09:29:36.181Z,98145
2018-01-23T09:32:05.130Z,98127
2018-01-23T09:34:33.320Z,98124
2018-01-23T09:37:01.505Z,98122
2018-01-23T09:39:29.690Z,98123
2018-01-23T09:41:58.638Z,98139
2018-01-23T09:44:26.801Z,98129
2018-01-23T09:46:55.082Z,98135
2018-01-23T09:49:23.237Z,98145
2018-01-23T09:51:51.444Z,98149
2018-01-23T09:54:19.610Z,98143
2018-01-23T09:56:47.778Z,98146
2018-01-23T09:59:15.976Z,98145
2018-01-23T10:01:44.145Z,98146
2018-01-23T10:04:12.318Z,98139
2018-01-23T10:06:40.511Z,98143
2018-01-23T10:09:08.699Z,98150
2018-01-23T10:11:36.919Z,98147
2018-01-23T10:14:05.102Z,98151
2018-01-23T10:16:33.324Z,98143
2018-01-23T10:19:01.490Z,98144
2018-01-23T10:21:29.679Z,98154
2018-01-23T10:23:58.621Z,98146
2018-01-23T10:26:26.795Z,98148
2018-01-23T10:28:54.968Z,98153
2018-01-23T10:31:23.156Z,98150
2018-01-23T10:33:51.334Z,98151
2018-01-23T10:36:19.535Z,98147
2018-01-23T10:38:47.701Z,98144
2018-01-23T10:41:15.866Z,98149
2018-01-23T10:43:44.068Z,98146
2018-01-23T10:46:13.055Z,98148
2018-01-23T10:48:41.242Z,98139
2018-01-23T10:51:10.175Z,98138
2018-01-23T10:53:38.344Z,98132
2018-01-23T10:56:06.530Z,98142
2018-01-23T10:58:34.697Z,98139
2018-01-23T11:01:06.832Z,98142
2018-01-23T11:03:35.798Z,98146
2018-01-23T11:06:03.971Z,98147
2018-01-23T11:08:32.171Z,98158
2018-01-23T11:11:01.112Z,98157
2018-01-23T11:13:29.277Z,98154
2018-01-23T11:15:57.469Z,98160
2018-01-23T11:18:25.655Z,98162
2018-01-23T11:20:53.828Z,98156
2018-01-23T11:23:22.005Z,98169
2018-01-23T11:25:50.178Z,98171
2018-01-23T11:28:18.358Z,98172
2018-01-23T11:30:46.534Z,98168
2018-01-23T11:33:14.715Z,98166
2018-01-23T11:35:42.892Z,98163
2018-01-23T11:38:11.068Z,98172
2018-01-23T11:40:39.237Z,98166
2018-01-23T11:43:07.423Z,98168
2018-01-23T11:45:35.591Z,98171
2018-01-23T11:48:03.783Z,98175
2018-01-23T11:50:32.757Z,98167
2018-01-23T11:53:00.939Z,98177
2018-01-23T11:55:29.113Z,98180
2018-01-23T11:57:57.278Z,98178
2018-01-23T12:00:25.497Z,98182
2018-01-23T12:02:53.657Z,98185
2018-01-23T12:05:22.600Z,98187
2018-01-23T12:07:50.864Z,98174
2018-01-23T12:10:19.027Z,98182
2018-01-23T12:12:47.209Z,98182
2018-01-23T12:15:15.378Z,98187
2018-01-23T12:17:43.544Z,98182
2018-01-23T12:20:11.706Z,98185
2018-01-23T12:22:39.896Z,98187
2018-01-23T12:25:08.069Z,98190
2018-01-23T12:27:36.248Z,98184
2018-01-23T12:30:04.437Z,98190
2018-01-23T12:32:33.430Z,98192
2018-01-23T12:35:01.614Z,98180
2018-01-23T12:37:29.789Z,98180
2018-01-23T12:39:57.957Z,98186
2018-01-23T12:42:26.125Z,98197
2018-01-23T12:44:54.289Z,98195
2018-01-23T12:47:22.566Z,98189
2018-01-23T12:49:50.757Z,98191
2018-01-23T12:52:18.941Z,98190
2018-01-23T12:54:47.130Z,98187
2018-01-23T12:57:15.293Z,98186
2018-01-23T12:59:43.478Z,98194
2018-01-23T13:02:11.658Z,98189
2018-01-23T13:04:39.826Z,98189
2018-01-23T13:07:07.997Z,98193
2018-01-23T13:09:36.197Z,98184
2018-01-23T13:12:05.145Z,98189
2018-01-23T13:14:33.445Z,98188
2018-01-23T13:17:03.278Z,98191
2018-01-23T13:19:32.219Z,98199
2018-01-23T13:22:00.389Z,98205
2018-01-23T13:24:28.566Z,98209
2018-01-23T13:26:56.740Z,98214
2018-01-23T13:29:24.926Z,98218
2018-01-23T13:31:53.090Z,98217
2018-01-23T13:34:21.322Z,98223
2018-01-23T13:36:50.250Z,98220
2018-01-23T13:39:18.427Z,98223
2018-01-23T13:41:46.603Z,98228
2018-01-23T13:44:14.799Z,98224
2018-01-23T13:46:42.968Z,98214
2018-01-23T13:49:11.153Z,98220
2018-01-23T13:51:39.331Z,98221
2018-01-23T13:54:08.313Z,98228
2018-01-23T13:56:36.488Z,98232
2018-01-23T13:59:04.687Z,98234
2018-01-23T14:01:32.867Z,98241
2018-01-23T14:04:01.040Z,98249
2018-01-23T14:06:29.214Z,98244
2018-01-23T14:08:57.386Z,98246
2018-01-23T14:11:25.557Z,98251
2018-01-23T14:13:53.728Z,98249
2018-01-23T14:16:21.953Z,98250
2018-01-23T14:18:50.860Z,98255
2018-01-23T14:21:19.040Z,98253
2018-01-23T14:23:47.209Z,98264
2018-01-23T14:26:15.392Z,98268
2018-01-23T14:28:43.562Z,98273
2018-01-23T14:31:11.745Z,98275
2018-01-23T14:33:39.957Z,98282
2018-01-23T14:36:08.141Z,98292
2018-01-23T14:38:37.091Z,98299
2018-01-23T14:41:05.253Z,98306
2018-01-23T14:43:33.425Z,98306
2018-01-23T14:46:01.596Z,98312
2018-01-23T14:48:29.774Z,98325
2018-01-23T14:50:57.947Z,98319
2018-01-23T14:53:26.125Z,98330
2018-01-23T14:55:54.293Z,98333
2018-01-23T14:58:22.469Z,98329
2018-01-23T15:00:50.643Z,98337
2018-01-23T15:03:18.814Z,98334
2018-01-23T15:05:46.990Z,98343
2018-01-23T15:08:15.156Z,98340
2018-01-23T15:10:43.315Z,98342
2018-01-23T15:13:12.298Z,98344
2018-01-23T15:15:41.239Z,98342
2018-01-23T15:18:09.411Z,98351
2018-01-23T15:20:37.587Z,98354
2018-01-23T15:23:05.759Z,98358
2018-01-23T15:25:33.937Z,98360
2018-01-23T15:28:02.111Z,98356
2018-01-23T15:30:30.291Z,98358
2018-01-23T15:32:58.459Z,98365
2018-01-23T15:35:26.688Z,98365
2018-01-23T15:37:55.625Z,98373
2018-01-23T15:40:23.796Z,98376
2018-01-23T15:42:52.064Z,98379
2018-01-23T15:45:20.226Z,98386
2018-01-23T15:48:27.391Z,98389
2018-01-23T15:50:56.050Z,98391
2018-01-23T15:53:24.965Z,98391
2018-01-23T15:55:53.953Z,98390
2018-01-23T15:58:22.125Z,98389
2018-01-23T16:00:50.286Z,98398
2018-01-23T16:03:18.502Z,98398
2018-01-23T16:05:47.437Z,98404
2018-01-23T16:08:16.373Z,98414
2018-01-23T16:10:44.554Z,98415
2018-01-23T16:13:12.714Z,98416
2018-01-23T16:15:40.881Z,98420
2018-01-23T16:18:09.076Z,98423
2018-01-23T16:20:37.235Z,98425
2018-01-23T16:23:05.414Z,98425
2018-01-23T16:25:33.602Z,98436
2018-01-23T16:28:01.766Z,98442
2018-01-23T16:30:29.971Z,98447
2018-01-23T16:32:58.142Z,98443
2018-01-23T16:35:26.324Z,98445
2018-01-23T16:37:54.506Z,98450
2018-01-23T16:40:22.678Z,98454
2018-01-23T16:42:51.617Z,98463
2018-01-23T16:45:19.826Z,98471
2018-01-23T16:47:47.985Z,98473
2018-01-23T16:50:16.157Z,98477
2018-01-23T16:52:44.321Z,98481
2018-01-23T16:55:12.492Z,98490
2018-01-23T16:57:40.685Z,98488
2018-01-23T17:00:08.845Z,98490
2018-01-23T17:02:37.045Z,98492
2018-01-23T17:05:05.296Z,98494
2018-01-23T17:07:33.481Z,98486
2018-01-23T17:10:01.733Z,98497
2018-01-23T17:12:29.902Z,98499
2018-01-23T17:14:58.057Z,98501
2018-01-23T17:17:26.998Z,98502
2018-01-23T17:19:55.174Z,98502
2018-01-23T17:22:23.354Z,98512
2018-01-23T17:24:51.616Z,98513
2018-01-23T17:27:19.804Z,98511
2018-01-23T17:29:47.968Z,98506
2018-01-23T17:32:16.132Z,98505
2018-01-23T17:34:44.416Z,98508
2018-01-23T17:37:12.690Z,98511
2018-01-23T17:39:40.867Z,98511
2018-01-23T17:42:09.039Z,98514
2018-01-23T17:44:37.225Z,98518
2018-01-23T17:47:05.397Z,98515
2018-01-23T17:49:33.563Z,98513
2018-01-23T17:52:01.728Z,98511
2018-01-23T17:54:29.918Z,98518
2018-01-23T17:56:58.190Z,98513
2018-01-23T17:59:26.361Z,98514
2018-01-23T18:01:54.533Z,98516
2018-01-23T18:04:22.689Z,98523
2018-01-23T18:06:50.857Z,98520
2018-01-23T18:09:19.801Z,98520
2018-01-23T18:11:47.976Z,98522
2018-01-23T18:14:16.162Z,98526
2018-01-23T18:16:44.345Z,98529
2018-01-23T18:19:12.583Z,98530
2018-01-23T18:21:40.803Z,98536
2018-01-23T18:24:08.977Z,98540
2018-01-23T18:26:37.249Z,98540
2018-01-23T18:29:05.411Z,98540
2018-01-23T18:31:33.570Z,98539
2018-01-23T18:34:01.729Z,98535
2018-01-23T18:36:29.902Z,98534
2018-01-23T18:38:58.064Z,98541
2018-01-23T18:41:26.238Z,98537
2018-01-23T18:43:54.438Z,98549
2018-01-23T18:46:22.703Z,98552
2018-01-23T18:48:50.887Z,98549
2018-01-23T18:51:19.066Z,98553
2018-01-23T18:53:47.231Z,98555
2018-01-23T18:56:15.417Z,98557
2018-01-23T18:58:43.587Z,98558
2018-01-23T19:01:11.780Z,98559
2018-01-23T19:03:39.958Z,98559
2018-01-23T19:06:08.142Z,98562
2018-01-23T19:08:36.309Z,98566
2018-01-23T19:11:04.485Z,98566
2018-01-23T19:13:32.664Z,98568
2018-01-23T19:16:00.848Z,98570
2018-01-23T19:18:29.022Z,98568
2018-01-23T19:20:57.963Z,98571
2018-01-23T19:23:26.136Z,98574
2018-01-23T19:25:54.327Z,98573
2018-01-23T19:28:22.498Z,98572
2018-01-23T19:30:50.745Z,98577
2018-01-23T19:33:18.938Z,98579
2018-01-23T19:35:47.236Z,98586
2018-01-23T19:38:15.706Z,98586
2018-01-23T19:40:44.197Z,98582
2018-01-23T19:43:13.278Z,98585
2018-01-23T19:45:41.461Z,98587
2018-01-23T19:48:09.905Z,98592
2018-01-23T19:50:38.389Z,98591
2018-01-23T19:53:07.579Z,98592
2018-01-23T19:55:36.069Z,98598
2018-01-23T19:58:04.294Z,98597
2018-01-23T20:00:32.809Z,98592
2018-01-23T20:03:01.307Z,98598
2018-01-23T20:05:29.799Z,98599
2018-01-23T20:07:58.281Z,98597
2018-01-23T20:10:26.756Z,98598
2018-01-23T20:12:55.293Z,98604
2018-01-23T20:15:23.833Z,98606
2018-01-23T20:17:52.049Z,98606
2018-01-23T20:20:20.500Z,98610
2018-01-23T20:22:48.719Z,98612
2018-01-23T20:25:16.920Z,98614
2018-01-23T20:27:45.855Z,98616
2018-01-23T20:30:14.252Z,98615
2018-01-23T20:32:43.320Z,98617
2018-01-23T20:35:11.495Z,98610
2018-01-23T20:37:39.721Z,98614
2018-01-23T20:40:08.678Z,98615
2018-01-23T20:42:36.842Z,98620
2018-01-23T20:45:05.028Z,98619
2018-01-23T20:47:33.283Z,98618
2018-01-23T20:50:01.452Z,98617
2018-01-23T20:52:29.631Z,98621
2018-01-23T20:54:57.810Z,98622
2018-01-23T20:57:25.986Z,98625
2018-01-23T20:59:54.189Z,98625
2018-01-23T21:02:22.431Z,98630
2018-01-23T21:04:50.600Z,98628
2018-01-23T21:07:18.789Z,98624
2018-01-23T21:09:46.970Z,98622
2018-01-23T21:12:15.149Z,98622
2018-01-23T21:14:43.318Z,98631
2018-01-23T21:17:11.587Z,98631
2018-01-23T21:19:39.754Z,98631
2018-01-23T21:22:07.925Z,98629
2018-01-23T21:24:36.096Z,98632
2018-01-23T21:27:04.294Z,98636
2018-01-23T21:29:32.467Z,98633
2018-01-23T21:32:00.648Z,98634
2018-01-23T21:34:28.825Z,98637
2018-01-23T21:36:56.993Z,98634
2018-01-23T21:39:25.166Z,98637
2018-01-23T21:41:53.335Z,98635
2018-01-23T21:44:21.521Z,98640
2018-01-23T21:46:49.784Z,98640
2018-01-23T21:49:17.974Z,98641
2018-01-23T21:51:46.155Z,98640
2018-01-23T21:54:14.343Z,98641
2018-01-23T21:56:42.505Z,98640
2018-01-23T21:59:10.763Z,98632
2018-01-23T22:01:38.961Z,98630
2018-01-23T22:04:07.146Z,98633
2018-01-23T22:06:35.336Z,98637
2018-01-23T22:09:04.370Z,98638
2018-01-23T22:11:32.553Z,98640
2018-01-23T22:14:00.727Z,98633
2018-01-23T22:16:28.914Z,98633
2018-01-23T22:18:57.086Z,98632
2018-01-23T22:21:25.288Z,98639
2018-01-23T22:23:53.471Z,98644
2018-01-23T22:26:21.643Z,98645
2018-01-23T22:28:49.808Z,98647
2018-01-23T22:31:18.001Z,98639
2018-01-23T22:33:46.196Z,98651
2018-01-23T22:36:14.376Z,98645
2018-01-23T22:38:42.565Z,98643
2018-01-23T22:41:10.750Z,98645
2018-01-23T22:43:38.923Z,98639
2018-01-23T22:46:07.135Z,98638
2018-01-23T22:48:35.317Z,98643
2018-01-23T22:51:03.493Z,98635
2018-01-23T22:53:31.723Z,98636
2018-01-23T22:55:59.912Z,98633
2018-01-23T22:58:28.086Z,98639
2018-01-23T23:00:56.257Z,98642
2018-01-23T23:03:24.437Z,98649
2018-01-23T23:05:52.603Z,98648
2018-01-23T23:08:20.782Z,98648
2018-01-23T23:10:48.951Z,98650
2018-01-23T23:13:17.122Z,98651
2018-01-23T23:15:45.290Z,98650
2018-01-23T23:18:13.503Z,98648
2018-01-23T23:20:41.707Z,98649
2018-01-23T23:23:10.661Z,98642
2018-01-23T23:25:38.887Z,98648
2018-01-23T23:28:07.037Z,98639
2018-01-23T23:30:35.202Z,98641
2018-01-23T23:33:03.397Z,98642
2018-01-23T23:35:32.328Z,98641
2018-01-23T23:38:00.495Z,98644
2018-01-23T23:40:28.687Z,98641
2018-01-23T23:42:56.848Z,98636
2018-01-23T23:45:25.007Z,98637
2018-01-23T23:47:53.199Z,98641
2018-01-23T23:50:21.372Z,98644
2018-01-23T23:52:49.570Z,98640
2018-01-23T23:55:17.746Z,98644
2018-01-23T23:57:45.909Z,98643
